Friday, November 28, 2014
17:02 UTC
  |  Log In   |  Register Free
Airport Search:

Livermore Municipal Airport
(KLVK)

FAA data valid effective November 13, 2014 - January 08, 2015 (unless otherwise noted).

 
 
 
 
 
 
 
 
 
 
 
 
 
 

Current Aviation Weather for Livermore Municipal Airport (KLVK)

The most recent METAR observation for KLVK was updated at: 1615
METAR Summary (Translated METAR)
KLVK
281602Z 07003KT 3/4SM BR SCT004 OVC009 06/04 A3003 RMK AO2
KHWD
281554Z 10004KT 3SM BR FEW016 11/09 A3002 RMK AO2 SLP176 T01060089
(14.5 nm SW from KLVK)
KOAK
281553Z 09003KT 2SM MIFG BR FEW009 10/09 A3002 RMK AO2 SLP165 T01000094 $
(19.1 nm NW from KLVK)
TAF Summary (Translated TAF)
KOAK
(19.1 nm NW from KLVK)
281145Z 2812/2918 VRB03KT 2SM BR BKN007 TEMPO 2812/2816 1/2SM FG OVC003 FM281800 22008KT 6SM BR FEW009 SCT050 BKN150 FM290200 18008G16KT P6SM VCSH SCT050 OVC100 FM290600 18008G16KT 3SM -RA BR OVC030
  Airport Weather Conditions for KLVK

 Current Weather at LVK
42° F
Fog/Mist
Southeast winds at 5.8 mph
LVK NOAA Radar

Pressure: 30.03 in
Humidity: 85%
Wind: Southeast at 5.8 MPH (5 KT)
Dew Point: 37.9°F
Visibility: 6.00 mi


Airport Weather Forecast for KLVK

Translated METAR and TAF for KLVK
Translated METAR for KLVK (1657 UTC 28 November 2014)
found at http://aviationweather.gov/adds/metars/
 
METAR text: KLVK 281653Z 07003KT 2SM BR OVC007 08/06 A3003 RMK AO2 SLP168 T00780056
Conditions at: KLVK (LIVERMORE , CA, US) observed 1653 UTC 28 November 2014
Temperature: 7.8°C (46°F)
Dewpoint: 5.6°C (42°F) [RH = 86%]
Pressure (altimeter): 30.03 inches Hg (1017.0 mb)
[Sea-level pressure: 1016.8 mb]
Winds: from the ENE (70 degrees) at 3 MPH (3 knots; 1.6 m/s)
Visibility: 2.00 miles (3.22 km)
Ceiling: 700 feet AGL
Clouds: overcast cloud deck at 700 feet AGL
Weather: BR  (mist)
Translated TAF for KLVK

There is no translated TAF available for this airport

Find All Airport Services Find A Hotel Find A Rental Car Find A Golf Course Find A Restaurant $100 Hamburger



FBO's on the Field
FBO Company Facility Photos Services Transportation Aviation Fuel Prices: Prices include tax
Catering Weather Repair Courtesy Rental Type 100LL JetA JetA+ MOGAS 8087
 
Livermore Municipal Airport

This FBO has not yet been rated
FS:Ascent
Last Updated: Nov-12
Login to update fuel prices
SS:
Contact Livermore Municipal AirportMore FBO Information
 
Add another FBO Facility Photos Catering Weather Repair Courtesy Rental Type 100LL JetA JetA+ MOGAS 8087
Services Transportation Aviation Fuel Prices: Prices include tax


model-print
model-print
model-print
model-print